createdAt,value
2019-05-26T00:01:12.585Z,11.10
2019-05-26T00:03:42.830Z,11.00
2019-05-26T00:06:13.099Z,11.00
2019-05-26T00:08:43.515Z,10.90
2019-05-26T00:11:13.936Z,10.90
2019-05-26T00:13:44.335Z,10.80
2019-05-26T00:16:14.614Z,10.80
2019-05-26T00:18:44.987Z,10.80
2019-05-26T00:21:15.322Z,10.70
2019-05-26T00:23:45.667Z,10.80
2019-05-26T00:26:16.118Z,10.70
2019-05-26T00:28:47.462Z,10.70
2019-05-26T00:31:17.838Z,10.70
2019-05-26T00:33:48.166Z,10.80
2019-05-26T00:36:18.517Z,10.70
2019-05-26T00:38:48.835Z,10.60
2019-05-26T00:41:19.275Z,10.40
2019-05-26T00:43:49.606Z,10.40
2019-05-26T00:46:20.044Z,10.40
2019-05-26T00:48:50.467Z,10.50
2019-05-26T00:51:20.979Z,10.60
2019-05-26T00:53:51.434Z,10.70
2019-05-26T00:56:21.845Z,10.70
2019-05-26T00:58:52.265Z,10.70
2019-05-26T01:01:22.610Z,10.80
2019-05-26T01:03:52.945Z,10.70
2019-05-26T01:06:23.298Z,10.60
2019-05-26T01:08:53.718Z,10.60
2019-05-26T01:11:23.993Z,10.50
2019-05-26T01:13:54.326Z,10.50
2019-05-26T01:16:24.887Z,10.50
2019-05-26T01:18:55.136Z,10.60
2019-05-26T01:21:25.508Z,10.60
2019-05-26T01:23:55.852Z,10.60
2019-05-26T01:26:26.256Z,10.60
2019-05-26T01:28:56.684Z,10.60
2019-05-26T01:31:27.088Z,10.60
2019-05-26T01:33:57.541Z,10.50
2019-05-26T01:36:28.060Z,10.40
2019-05-26T01:38:59.308Z,10.50
2019-05-26T01:41:29.641Z,10.40
2019-05-26T01:43:59.969Z,10.40
2019-05-26T01:46:30.296Z,10.50
2019-05-26T01:49:00.657Z,10.50
2019-05-26T01:51:30.927Z,10.50
2019-05-26T01:54:01.265Z,10.50
2019-05-26T01:56:31.697Z,10.60
2019-05-26T01:59:03.207Z,10.50
2019-05-26T02:01:33.748Z,10.50
2019-05-26T02:04:04.168Z,10.40
2019-05-26T02:06:34.524Z,10.50
2019-05-26T02:09:06.904Z,10.50
2019-05-26T02:11:37.496Z,10.40
2019-05-26T02:14:07.917Z,10.40
2019-05-26T02:16:38.184Z,10.30
2019-05-26T02:19:08.528Z,10.30
2019-05-26T02:21:38.890Z,10.30
2019-05-26T02:24:09.136Z,10.40
2019-05-26T02:26:39.435Z,10.40
2019-05-26T02:29:09.769Z,10.40
2019-05-26T02:31:40.151Z,10.40
2019-05-26T02:34:10.440Z,10.40
2019-05-26T02:36:40.859Z,10.40
2019-05-26T02:39:11.304Z,10.40
2019-05-26T02:41:41.675Z,10.50
2019-05-26T02:44:12.075Z,10.50
2019-05-26T02:46:43.360Z,10.50
2019-05-26T02:49:13.763Z,10.50
2019-05-26T02:51:44.068Z,10.40
2019-05-26T02:54:14.407Z,10.40
2019-05-26T02:56:44.763Z,10.50
2019-05-26T02:59:15.101Z,10.60
2019-05-26T03:02:02.551Z,10.60
2019-05-26T03:04:17.927Z,10.60
2019-05-26T03:06:49.461Z,10.50
2019-05-26T03:09:23.382Z,10.30
2019-05-26T03:11:54.554Z,10.30
2019-05-26T03:14:26.011Z,10.30
2019-05-26T03:16:58.627Z,10.30
2019-05-26T03:19:31.582Z,10.30
2019-05-26T03:22:03.620Z,10.40
2019-05-26T03:24:33.976Z,10.40
2019-05-26T03:27:04.627Z,10.40
2019-05-26T03:29:34.965Z,10.40
2019-05-26T03:32:06.222Z,10.50
2019-05-26T03:34:36.505Z,10.50
2019-05-26T03:37:07.834Z,10.40
2019-05-26T03:39:45.413Z,10.40
2019-05-26T03:42:10.323Z,10.50
2019-05-26T03:44:40.639Z,10.60
2019-05-26T03:47:12.271Z,10.50
2019-05-26T03:49:43.195Z,10.60
2019-05-26T03:52:13.563Z,10.70
2019-05-26T03:54:43.859Z,10.70
2019-05-26T03:57:14.205Z,10.80
2019-05-26T03:59:44.550Z,10.90
2019-05-26T04:02:14.949Z,11.00
2019-05-26T04:04:45.224Z,11.00
2019-05-26T04:07:15.563Z,11.10
2019-05-26T04:10:03.021Z,11.20
2019-05-26T04:12:17.811Z,11.20
2019-05-26T04:14:48.108Z,11.30
2019-05-26T04:17:18.358Z,11.30
2019-05-26T04:19:48.664Z,11.40
2019-05-26T04:22:19.059Z,11.40
2019-05-26T04:24:50.370Z,11.40
2019-05-26T04:27:20.923Z,11.50
2019-05-26T04:29:51.195Z,11.50
2019-05-26T04:32:21.452Z,11.60
2019-05-26T04:34:51.811Z,11.70
2019-05-26T04:37:22.166Z,11.70
2019-05-26T04:39:52.585Z,11.80
2019-05-26T04:42:22.853Z,11.80
2019-05-26T04:44:54.101Z,11.90
2019-05-26T04:47:24.464Z,12.00
2019-05-26T04:49:54.731Z,12.00
2019-05-26T04:52:25.059Z,12.10
2019-05-26T04:54:55.411Z,12.20
2019-05-26T04:57:25.674Z,12.30
2019-05-26T04:59:56.002Z,12.50
2019-05-26T05:02:26.335Z,12.60
2019-05-26T05:04:56.802Z,12.70
2019-05-26T05:07:28.516Z,12.70
2019-05-26T05:09:59.122Z,12.70
2019-05-26T05:12:29.488Z,12.80
2019-05-26T05:14:59.831Z,12.90
2019-05-26T05:17:31.421Z,13.00
2019-05-26T05:20:04.279Z,13.10
2019-05-26T05:22:34.690Z,13.20
2019-05-26T05:25:12.785Z,13.30
2019-05-26T05:27:37.626Z,13.40
2019-05-26T05:30:09.866Z,13.40
2019-05-26T05:32:40.147Z,13.50
2019-05-26T05:35:10.679Z,13.50
2019-05-26T05:37:41.011Z,13.50
2019-05-26T05:40:11.939Z,13.70
2019-05-26T05:42:42.271Z,13.80
2019-05-26T05:45:13.808Z,13.90
2019-05-26T05:47:44.218Z,13.90
2019-05-26T05:50:14.843Z,14.00
2019-05-26T05:52:45.195Z,14.20
2019-05-26T05:55:15.690Z,14.40
2019-05-26T05:57:45.970Z,14.60
2019-05-26T06:00:16.566Z,14.80
2019-05-26T06:02:46.992Z,14.70
2019-05-26T06:05:17.410Z,14.80
2019-05-26T06:07:47.810Z,14.90
2019-05-26T06:10:18.255Z,14.90
2019-05-26T06:12:48.611Z,14.80
2019-05-26T06:15:19.060Z,15.00
2019-05-26T06:17:49.564Z,15.00
2019-05-26T06:20:20.281Z,15.10
2019-05-26T06:22:50.558Z,15.10
2019-05-26T06:25:21.189Z,15.30
2019-05-26T06:27:51.620Z,15.40
2019-05-26T06:30:22.145Z,15.50
2019-05-26T06:32:52.793Z,15.40
2019-05-26T06:35:23.103Z,15.30
2019-05-26T06:37:53.505Z,15.30
2019-05-26T06:40:23.932Z,16.00
2019-05-26T06:42:54.187Z,16.30
2019-05-26T06:45:24.623Z,16.70
2019-05-26T06:47:54.983Z,16.80
2019-05-26T06:50:25.427Z,16.60
2019-05-26T06:52:55.844Z,16.50
2019-05-26T06:55:26.660Z,16.50
2019-05-26T06:57:57.099Z,16.60
2019-05-26T07:00:27.631Z,16.90
2019-05-26T07:02:58.015Z,17.60
2019-05-26T07:05:28.465Z,18.30
2019-05-26T07:07:58.799Z,18.60
2019-05-26T07:10:29.151Z,19.00
2019-05-26T07:12:59.500Z,19.20
2019-05-26T07:15:30.900Z,19.10
2019-05-26T07:18:01.370Z,19.00
2019-05-26T07:20:31.800Z,19.10
2019-05-26T07:23:03.534Z,19.00
2019-05-26T07:25:34.310Z,19.00
2019-05-26T07:28:04.828Z,18.60
2019-05-26T07:30:35.260Z,18.60
2019-05-26T07:33:05.713Z,18.80
2019-05-26T07:35:36.020Z,18.70
2019-05-26T07:38:06.328Z,18.90
2019-05-26T07:40:36.646Z,18.90
2019-05-26T07:43:07.078Z,19.60
2019-05-26T07:45:37.370Z,19.80
2019-05-26T07:48:07.723Z,19.70
2019-05-26T07:50:38.066Z,20.00
2019-05-26T07:53:08.359Z,19.90
2019-05-26T07:55:38.718Z,19.70
2019-05-26T07:58:09.435Z,19.30
2019-05-26T08:00:39.767Z,19.40
2019-05-26T08:03:10.199Z,19.40
2019-05-26T08:05:40.555Z,19.40
2019-05-26T08:08:13.048Z,19.30
2019-05-26T08:10:42.991Z,19.30
2019-05-26T08:13:13.300Z,19.10
2019-05-26T08:15:43.906Z,19.00
2019-05-26T08:18:14.206Z,19.00
2019-05-26T08:20:44.561Z,18.80
2019-05-26T08:23:15.008Z,19.00
2019-05-26T08:25:46.488Z,18.90
2019-05-26T08:28:16.921Z,19.10
2019-05-26T08:30:47.377Z,19.30
2019-05-26T08:33:17.820Z,19.10
2019-05-26T08:35:48.256Z,19.10
2019-05-26T08:38:18.668Z,18.80
2019-05-26T08:41:06.348Z,18.70
2019-05-26T08:43:37.334Z,18.80
2019-05-26T08:46:07.759Z,18.60
2019-05-26T08:48:38.189Z,18.50
2019-05-26T08:51:08.541Z,18.60
2019-05-26T08:53:39.074Z,18.80
2019-05-26T08:56:09.421Z,18.90
2019-05-26T08:58:39.869Z,19.00
2019-05-26T09:01:10.217Z,19.10
2019-05-26T09:03:40.594Z,19.20
2019-05-26T09:06:10.879Z,19.40
2019-05-26T09:08:41.241Z,19.30
2019-05-26T09:11:11.610Z,19.50
2019-05-26T09:13:42.031Z,19.60
2019-05-26T09:16:12.467Z,19.80
2019-05-26T09:18:42.767Z,19.90
2019-05-26T09:21:13.152Z,20.00
2019-05-26T09:23:43.536Z,20.30
2019-05-26T09:26:13.903Z,20.10
2019-05-26T09:28:44.323Z,20.20
2019-05-26T09:31:14.694Z,20.20
2019-05-26T09:33:44.973Z,20.40
2019-05-26T09:36:16.378Z,20.40
2019-05-26T09:38:46.803Z,20.50
2019-05-26T09:41:17.150Z,20.60
2019-05-26T09:43:47.492Z,20.60
2019-05-26T09:46:17.910Z,20.80
2019-05-26T09:48:48.400Z,21.00
2019-05-26T09:51:18.813Z,20.80
2019-05-26T09:54:00.741Z,20.90
2019-05-26T09:56:21.149Z,20.90
2019-05-26T09:58:52.740Z,21.10
2019-05-26T10:01:23.170Z,21.30
2019-05-26T10:03:53.436Z,21.70
2019-05-26T10:06:24.748Z,21.90
2019-05-26T10:08:55.202Z,22.10
2019-05-26T10:11:25.574Z,22.20
2019-05-26T10:13:55.820Z,22.10
2019-05-26T10:16:26.261Z,22.10
2019-05-26T10:18:57.669Z,22.10
2019-05-26T10:21:28.145Z,22.50
2019-05-26T10:23:59.409Z,22.60
2019-05-26T10:26:29.832Z,22.60
2019-05-26T10:29:00.857Z,22.70
2019-05-26T10:31:31.388Z,22.70
2019-05-26T10:34:03.403Z,22.70
2019-05-26T10:36:33.772Z,22.80
2019-05-26T10:39:06.072Z,22.80
2019-05-26T10:41:36.456Z,22.90
2019-05-26T10:44:07.888Z,23.00
2019-05-26T10:46:38.407Z,23.20
2019-05-26T10:49:08.837Z,23.20
2019-05-26T10:51:39.304Z,23.30
2019-05-26T10:54:09.672Z,23.30
2019-05-26T10:56:40.136Z,23.20
2019-05-26T10:59:10.441Z,23.30
2019-05-26T11:01:40.864Z,23.50
2019-05-26T11:04:11.301Z,23.30
2019-05-26T11:06:41.813Z,23.20
2019-05-26T11:09:12.164Z,23.20
2019-05-26T11:11:42.573Z,23.10
2019-05-26T11:14:12.967Z,22.70
2019-05-26T11:16:43.366Z,22.60
2019-05-26T11:19:13.793Z,22.70
2019-05-26T11:21:44.173Z,22.70
2019-05-26T11:24:14.432Z,23.00
2019-05-26T11:26:44.784Z,23.20
2019-05-26T11:29:15.184Z,23.40
2019-05-26T11:31:45.626Z,23.70
2019-05-26T11:34:15.955Z,23.80
2019-05-26T11:36:46.326Z,23.90
2019-05-26T11:39:16.598Z,23.80
2019-05-26T11:41:54.576Z,23.70
2019-05-26T11:44:19.086Z,23.60
2019-05-26T11:46:49.471Z,23.30
2019-05-26T11:49:19.717Z,23.30
2019-05-26T11:51:50.971Z,23.40
2019-05-26T11:54:21.420Z,23.30
2019-05-26T11:56:51.842Z,23.20
2019-05-26T11:59:22.115Z,23.20
2019-05-26T12:01:52.561Z,23.10
2019-05-26T12:04:22.984Z,23.10
2019-05-26T12:06:53.288Z,23.10
2019-05-26T12:09:23.720Z,23.10
2019-05-26T12:11:54.057Z,23.20
2019-05-26T12:14:34.278Z,23.10
2019-05-26T12:16:56.454Z,23.40
2019-05-26T12:19:26.788Z,23.80
2019-05-26T12:21:57.107Z,23.70
2019-05-26T12:24:27.507Z,23.90
2019-05-26T12:26:57.862Z,24.20
2019-05-26T12:29:28.196Z,24.40
2019-05-26T12:31:58.544Z,24.50
2019-05-26T12:34:28.808Z,24.50
2019-05-26T12:36:59.180Z,24.20
2019-05-26T12:39:29.623Z,24.10
2019-05-26T12:41:59.991Z,23.90
2019-05-26T12:44:30.427Z,23.80
2019-05-26T12:47:02.536Z,24.00
2019-05-26T12:49:32.895Z,24.00
2019-05-26T12:52:03.358Z,23.90
2019-05-26T12:54:34.015Z,23.80
2019-05-26T12:57:04.449Z,23.80
2019-05-26T12:59:34.833Z,23.70
2019-05-26T13:02:05.864Z,23.80
2019-05-26T13:04:36.196Z,23.70
2019-05-26T13:07:06.661Z,23.50
2019-05-26T13:09:36.996Z,23.20
2019-05-26T13:12:07.505Z,23.20
2019-05-26T13:14:37.929Z,23.10
2019-05-26T13:17:08.354Z,23.10
2019-05-26T13:19:38.606Z,23.30
2019-05-26T13:22:09.038Z,23.50
2019-05-26T13:24:39.386Z,23.40
2019-05-26T13:27:09.746Z,23.50
2019-05-26T13:29:40.187Z,23.60
2019-05-26T13:32:10.610Z,23.50
2019-05-26T13:34:40.955Z,23.30
2019-05-26T13:37:11.295Z,23.20
2019-05-26T13:39:41.738Z,23.30
2019-05-26T13:42:12.082Z,23.20
2019-05-26T13:44:42.346Z,23.00
2019-05-26T13:47:25.414Z,22.80
2019-05-26T13:49:44.770Z,22.90
2019-05-26T13:52:15.195Z,23.00
2019-05-26T13:54:45.471Z,22.90
2019-05-26T13:57:15.790Z,22.90
2019-05-26T13:59:46.142Z,23.10
2019-05-26T14:02:16.422Z,23.10
2019-05-26T14:04:46.774Z,23.30
2019-05-26T14:07:17.198Z,23.20
2019-05-26T14:09:47.626Z,23.20
2019-05-26T14:12:18.141Z,23.20
2019-05-26T14:14:49.216Z,23.10
2019-05-26T14:17:20.396Z,23.20
2019-05-26T14:19:52.470Z,23.20
2019-05-26T14:22:22.911Z,23.10
2019-05-26T14:24:54.452Z,23.20
2019-05-26T14:27:24.865Z,23.20
2019-05-26T14:29:55.298Z,23.10
2019-05-26T14:32:26.630Z,22.90
2019-05-26T14:34:56.955Z,22.70
2019-05-26T14:37:27.258Z,22.60
2019-05-26T14:39:57.597Z,22.60
2019-05-26T14:42:28.354Z,22.30
2019-05-26T14:44:58.834Z,22.20
2019-05-26T14:47:29.125Z,22.00
2019-05-26T14:49:59.404Z,21.90
2019-05-26T14:52:30.838Z,21.70
2019-05-26T14:55:01.173Z,21.50
2019-05-26T14:57:31.594Z,21.40
2019-05-26T15:00:03.581Z,21.40
2019-05-26T15:02:33.858Z,21.40
2019-05-26T15:05:04.479Z,21.50
2019-05-26T15:07:34.901Z,21.60
2019-05-26T15:10:06.407Z,21.70
2019-05-26T15:12:36.738Z,21.70
2019-05-26T15:15:07.513Z,21.90
2019-05-26T15:17:37.962Z,21.80
2019-05-26T15:20:11.819Z,21.70
2019-05-26T15:22:42.173Z,21.80
2019-05-26T15:25:13.281Z,21.80
2019-05-26T15:27:46.421Z,21.80
2019-05-26T15:30:17.193Z,21.70
2019-05-26T15:32:47.568Z,21.70
2019-05-26T15:35:18.025Z,21.60
2019-05-26T15:37:48.449Z,21.40
2019-05-26T15:40:19.033Z,21.30
2019-05-26T15:42:50.487Z,21.20
2019-05-26T15:45:21.015Z,21.20
2019-05-26T15:47:51.367Z,21.20
2019-05-26T15:50:21.946Z,21.20
2019-05-26T15:52:52.267Z,21.30
2019-05-26T15:55:22.635Z,21.40
2019-05-26T15:57:53.045Z,21.40
2019-05-26T16:00:25.040Z,21.60
2019-05-26T16:02:56.208Z,21.70
2019-05-26T16:05:26.579Z,21.90
2019-05-26T16:07:56.905Z,21.90
2019-05-26T16:10:27.200Z,22.00
2019-05-26T16:12:57.460Z,22.10
2019-05-26T16:15:27.806Z,21.90
2019-05-26T16:17:58.085Z,22.00
2019-05-26T16:20:28.457Z,21.90
2019-05-26T16:22:59.661Z,21.80
2019-05-26T16:25:30.081Z,21.80
2019-05-26T16:28:00.452Z,21.70
2019-05-26T16:30:30.947Z,21.80
2019-05-26T16:33:01.912Z,22.00
2019-05-26T16:35:32.391Z,22.10
2019-05-26T16:38:02.703Z,22.10
2019-05-26T16:40:33.060Z,21.90
2019-05-26T16:43:04.648Z,21.90
2019-05-26T16:45:37.016Z,21.90
2019-05-26T16:48:07.113Z,21.90
2019-05-26T16:50:37.450Z,22.00
2019-05-26T16:53:08.756Z,22.00
2019-05-26T16:55:39.151Z,21.90
2019-05-26T16:58:09.632Z,21.80
2019-05-26T17:00:39.981Z,21.70
2019-05-26T17:03:10.336Z,21.60
2019-05-26T17:05:40.679Z,21.50
2019-05-26T17:08:10.968Z,21.50
2019-05-26T17:10:41.379Z,21.40
2019-05-26T17:13:11.854Z,21.40
2019-05-26T17:15:42.203Z,21.40
2019-05-26T17:18:12.487Z,21.30
2019-05-26T17:20:42.883Z,21.30
2019-05-26T17:23:13.238Z,21.20
2019-05-26T17:25:44.581Z,21.20
2019-05-26T17:28:14.940Z,21.20
2019-05-26T17:30:45.348Z,21.20
2019-05-26T17:33:15.708Z,21.10
2019-05-26T17:35:46.141Z,21.00
2019-05-26T17:38:17.392Z,20.90
2019-05-26T17:40:47.742Z,20.90
2019-05-26T17:43:18.166Z,20.90
2019-05-26T17:45:48.577Z,20.80
2019-05-26T17:48:19.009Z,20.80
2019-05-26T17:50:49.449Z,20.80
2019-05-26T17:53:19.792Z,20.80
2019-05-26T17:55:50.136Z,20.80
2019-05-26T17:58:20.444Z,20.80
2019-05-26T18:00:51.043Z,20.70
2019-05-26T18:03:21.512Z,20.60
2019-05-26T18:05:51.986Z,20.50
2019-05-26T18:08:22.309Z,20.40
2019-05-26T18:10:52.580Z,20.40
2019-05-26T18:13:22.973Z,20.40
2019-05-26T18:15:53.461Z,20.40
2019-05-26T18:18:24.429Z,20.20
2019-05-26T18:20:54.829Z,20.10
2019-05-26T18:23:25.261Z,20.10
2019-05-26T18:25:55.606Z,20.10
2019-05-26T18:28:25.949Z,20.10
2019-05-26T18:30:56.222Z,20.10
2019-05-26T18:33:27.006Z,20.10
2019-05-26T18:35:57.398Z,20.10
2019-05-26T18:38:27.822Z,20.10
2019-05-26T18:40:58.241Z,20.10
2019-05-26T18:43:28.601Z,20.10
2019-05-26T18:45:58.999Z,20.10
2019-05-26T18:48:29.424Z,19.90
2019-05-26T18:50:59.765Z,19.80
2019-05-26T18:53:34.824Z,19.60
2019-05-26T19:34:46.309Z,18.40
2019-05-26T19:37:18.605Z,18.40
2019-05-26T19:39:48.940Z,18.40
2019-05-26T19:42:19.603Z,18.30
2019-05-26T19:44:50.139Z,18.20
2019-05-26T19:47:20.568Z,18.20
2019-05-26T19:49:50.989Z,18.10
2019-05-26T19:52:21.473Z,18.10
2019-05-26T19:54:51.911Z,18.10
2019-05-26T19:57:22.407Z,18.10
2019-05-26T19:59:52.880Z,18.10
2019-05-26T20:02:23.235Z,18.10
2019-05-26T20:04:53.695Z,18.10
2019-05-26T20:07:23.956Z,18.00
2019-05-26T20:09:54.421Z,17.90
2019-05-26T20:12:24.772Z,17.90
2019-05-26T20:14:55.062Z,17.90
2019-05-26T20:17:25.339Z,17.90
2019-05-26T20:19:56.291Z,17.80
2019-05-26T20:22:26.861Z,17.80
2019-05-26T20:24:57.465Z,17.70
2019-05-26T20:27:28.176Z,17.70
2019-05-26T20:29:58.462Z,17.60
2019-05-26T20:32:28.819Z,17.60
2019-05-26T20:34:59.160Z,17.60
2019-05-26T20:37:29.664Z,17.50
2019-05-26T20:40:00.000Z,17.50
2019-05-26T20:42:30.463Z,17.50
2019-05-26T20:45:03.310Z,17.50
2019-05-26T20:47:33.706Z,17.50
2019-05-26T20:50:04.470Z,17.50
2019-05-26T20:52:35.982Z,17.50
2019-05-26T20:55:06.843Z,17.50
2019-05-26T20:57:37.174Z,17.40
2019-05-26T21:00:10.030Z,17.40
2019-05-26T21:02:41.095Z,17.30
2019-05-26T21:05:11.736Z,17.40
2019-05-26T21:07:42.020Z,17.30
2019-05-26T21:10:13.899Z,17.30
2019-05-26T21:12:44.296Z,17.30
2019-05-26T21:15:14.855Z,17.20
2019-05-26T21:17:45.252Z,17.20
2019-05-26T21:20:15.996Z,17.30
2019-05-26T21:22:46.430Z,17.20
2019-05-26T21:25:16.949Z,17.20
2019-05-26T21:27:47.372Z,17.20
2019-05-26T21:30:17.735Z,17.10
2019-05-26T21:32:48.094Z,17.10
2019-05-26T21:35:18.521Z,17.10
2019-05-26T21:37:48.892Z,17.10
2019-05-26T21:40:19.344Z,17.10
2019-05-26T21:42:49.708Z,17.00
2019-05-26T21:45:20.144Z,17.00
2019-05-26T21:47:50.473Z,17.00
2019-05-26T21:50:20.905Z,17.00
2019-05-26T21:52:51.233Z,17.00
2019-05-26T21:55:21.614Z,17.00
2019-05-26T21:57:51.937Z,16.90
2019-05-26T22:00:24.589Z,16.90
2019-05-26T22:02:55.945Z,16.90
2019-05-26T22:05:27.117Z,16.90
2019-05-26T22:07:57.486Z,16.90
2019-05-26T22:10:28.358Z,16.90
2019-05-26T22:12:58.747Z,16.90
2019-05-26T22:15:29.115Z,16.90
2019-05-26T22:17:59.445Z,16.80
2019-05-26T22:20:29.814Z,16.80
2019-05-26T22:23:00.245Z,16.70
2019-05-26T22:25:31.631Z,16.70
2019-05-26T22:28:02.544Z,16.70
2019-05-26T22:30:32.889Z,16.80
2019-05-26T22:33:03.253Z,16.70
2019-05-26T22:35:33.586Z,16.60
2019-05-26T22:38:04.771Z,16.60
2019-05-26T22:40:35.035Z,16.60
2019-05-26T22:43:05.451Z,16.60
2019-05-26T22:45:35.827Z,16.60
2019-05-26T22:48:06.208Z,16.60
2019-05-26T22:50:36.581Z,16.70
2019-05-26T22:53:06.904Z,16.60
2019-05-26T22:55:37.161Z,16.60
2019-05-26T22:58:08.371Z,16.60
2019-05-26T23:00:38.869Z,16.70
2019-05-26T23:03:09.201Z,16.60
2019-05-26T23:05:39.633Z,16.60
2019-05-26T23:08:10.011Z,16.60
2019-05-26T23:10:41.395Z,16.60
2019-05-26T23:13:11.756Z,16.60
2019-05-26T23:15:42.191Z,16.50
2019-05-26T23:18:12.536Z,16.40
2019-05-26T23:20:42.967Z,16.30
2019-05-26T23:23:13.299Z,16.20
2019-05-26T23:25:43.691Z,16.20
2019-05-26T23:28:13.951Z,16.10
2019-05-26T23:30:44.337Z,16.10
2019-05-26T23:33:14.654Z,16.10
2019-05-26T23:35:45.108Z,16.10
2019-05-26T23:38:15.514Z,16.10
2019-05-26T23:40:45.885Z,16.00
2019-05-26T23:43:16.337Z,16.00
2019-05-26T23:45:46.685Z,16.00
2019-05-26T23:48:16.929Z,15.80
2019-05-26T23:50:47.307Z,15.70
2019-05-26T23:53:17.679Z,15.70
2019-05-26T23:55:48.010Z,15.60
2019-05-26T23:58:18.312Z,15.60
